| time (UTC) | temp C | wind direction | speed KPH | gust KPH | rain 1hr cm | rain 24hr cm | rain mn cm | humidity % | barometer mb |
| 20260502232119 | 13 | 39 | 1.6 | 4.8 | 0.18 | 0.48 | 0.38 | 94 | 1013.3 |
| 20260502231620 | 13 | 131 | 1.6 | 8.0 | 0.23 | 0.48 | 0.38 | 94 | 1013.3 |
| 20260502231121 | 13 | 133 | 3.2 | 8.0 | 0.23 | 0.48 | 0.38 | 94 | 1013.4 |
| 20260502230618 | 13 | 113 | 3.2 | 6.4 | 0.28 | 0.48 | 0.38 | 93 | 1013.5 |
| 20260502230117 | 13 | 113 | 3.2 | 6.4 | 0.38 | 0.48 | 0.38 | 93 | 1013.6 |
| 20260502225616 | 13 | 66 | 3.2 | 8.0 | 0.46 | 0.48 | 0.38 | 93 | 1013.6 |
| 20260502225117 | 13 | 37 | 3.2 | 8.0 | 0.46 | 0.46 | 0.36 | 93 | 1013.6 |
| 20260502224617 | 14 | 11 | 3.2 | 8.0 | 0.46 | 0.46 | 0.36 | 92 | 1013.7 |
| 20260502224114 | 14 | 51 | 3.2 | 9.7 | 0.46 | 0.46 | 0.36 | 92 | 1013.6 |
| 20260502223614 | 14 | 30 | 4.8 | 9.7 | 0.43 | 0.43 | 0.33 | 91 | 1013.7 |
| 20260502223116 | 14 | 21 | 3.2 | 9.7 | 0.38 | 0.38 | 0.28 | 90 | 1014.0 |
| 20260502222614 | 15 | 220 | 3.2 | 4.8 | 0.33 | 0.33 | 0.23 | 89 | 1014.4 |
| 20260502222115 | 15 | 220 | 1.6 | 3.2 | 0.30 | 0.30 | 0.18 | 88 | 1014.6 |
| 20260502220614 | 15 | 219 | 1.6 | 9.7 | 0.20 | 0.20 | 0.08 | 85 | 1015.1 |
| 20260502215609 | 16 | 250 | 3.2 | 11.3 | 0.03 | 0.03 | 0.00 | 78 | 1015.0 |
| 20260502215110 | 16 | 290 | 3.2 | 32.2 | 0.00 | 0.00 | 0.00 | 77 | 1015.0 |
| 20260502214608 | 16 | 240 | 3.2 | 32.2 | 0.00 | 0.00 | 0.00 | 74 | 1015.1 |
| 20260502214108 | 16 | 219 | 6.4 | 17.7 | 0.00 | 0.00 | 0.00 | 70 | 1015.2 |
| 20260502213606 | 16 | 162 | 1.6 | 4.8 | 0.00 | 0.00 | 0.00 | 69 | 1013.9 |
| 20260502212105 | 16 | 133 | 3.2 | 6.4 | 0.00 | 0.00 | 0.00 | 68 | 1013.7 |
| 20260502211605 | 16 | 63 | 3.2 | 6.4 | 0.00 | 0.00 | 0.00 | 67 | 1013.5 |
| 20260502211102 | 16 | 37 | 3.2 | 6.4 | 0.00 | 0.00 | 0.00 | 66 | 1013.6 |
| 20260502210602 | 16 | 21 | 1.6 | 8.0 | 0.00 | 0.00 | 0.00 | 65 | 1013.7 |
| 20260502205603 | 16 | 30 | 3.2 | 6.4 | 0.00 | 0.00 | 0.00 | 65 | 1013.9 |
| 20260502205102 | 17 | 93 | 1.6 | 14.5 | 0.00 | 0.00 | 0.00 | 65 | 1014.0 |
| 20260502204602 | 17 | 27 | 3.2 | 14.5 | 0.00 | 0.00 | 0.00 | 64 | 1014.0 |
| 20260502204103 | 17 | 94 | 3.2 | 6.4 | 0.00 | 0.00 | 0.00 | 64 | 1013.9 |
| 20260502203604 | 17 | 0 | 3.2 | 8.0 | 0.00 | 0.00 | 0.00 | 64 | 1013.9 |
| 20260502203102 | 17 | 17 | 3.2 | 8.0 | 0.00 | 0.00 | 0.00 | 65 | 1013.8 |
| 20260502202104 | 17 | 0 | 3.2 | 8.0 | 0.00 | 0.00 | 0.00 | 66 | 1014.0 |
| 20260502201603 | 17 | 68 | 3.2 | 6.4 | 0.00 | 0.00 | 0.00 | 67 | 1014.2 |
| 20260502201104 | 17 | 41 | 3.2 | 9.7 | 0.00 | 0.00 | 0.00 | 67 | 1014.2 |
| 20260502200602 | 17 | 44 | 4.8 | 9.7 | 0.00 | 0.00 | 0.00 | 66 | 1014.2 |
| 20260502195604 | 17 | 31 | 3.2 | 8.0 | 0.00 | 0.00 | 0.00 | 67 | 1014.3 |
| 20260502195103 | 17 | 24 | 3.2 | 8.0 | 0.00 | 0.00 | 0.00 | 67 | 1014.4 |
| 20260502194601 | 17 | 353 | 4.8 | 8.0 | 0.00 | 0.00 | 0.00 | 66 | 1014.4 |
| 20260502194102 | 17 | 0 | 4.8 | 8.0 | 0.00 | 0.00 | 0.00 | 66 | 1014.3 |
| 20260502193604 | 18 | 25 | 3.2 | 8.0 | 0.00 | 0.00 | 0.00 | 66 | 1014.5 |
| 20260502193103 | 18 | 0 | 3.2 | 6.4 | 0.00 | 0.00 | 0.00 | 65 | 1014.5 |
| 20260502192604 | 18 | 34 | 3.2 | 6.4 | 0.00 | 0.00 | 0.00 | 65 | 1014.5 |
| 20260502192102 | 18 | 20 | 3.2 | 8.0 | 0.00 | 0.00 | 0.00 | 65 | 1014.5 |
| 20260502191602 | 18 | 23 | 3.2 | 9.7 | 0.00 | 0.00 | 0.00 | 65 | 1014.4 |
| 20260502191102 | 18 | 20 | 6.4 | 9.7 | 0.00 | 0.00 | 0.00 | 64 | 1014.5 |
| 20260502190104 | 19 | 23 | 3.2 | 8.0 | 0.00 | 0.00 | 0.00 | 63 | 1014.4 |
| 20260502185102 | 20 | 32 | 3.2 | 6.4 | 0.00 | 0.00 | 0.00 | 63 | 1014.5 |
| 20260502184603 | 20 | 17 | 3.2 | 8.0 | 0.00 | 0.00 | 0.00 | 63 | 1014.5 |
| 20260502184101 | 20 | 355 | 3.2 | 11.3 | 0.00 | 0.00 | 0.00 | 63 | 1014.5 |
| 20260502183602 | 20 | 21 | 6.4 | 11.3 | 0.00 | 0.00 | 0.00 | 63 | 1014.5 |
| 20260502183103 | 20 | 338 | 3.2 | 4.8 | 0.00 | 0.00 | 0.00 | 65 | 1014.4 |
| 20260502182603 | 20 | 320 | 1.6 | 4.8 | 0.00 | 0.00 | 0.00 | 65 | 1014.3 |
| 20260502182101 | 20 | 320 | 1.6 | 4.8 | 0.00 | 0.00 | 0.00 | 64 | 1014.3 |
| 20260502181603 | 20 | 320 | 3.2 | 6.4 | 0.00 | 0.00 | 0.00 | 63 | 1014.2 |
| 20260502181103 | 21 | 343 | 1.6 | 6.4 | 0.00 | 0.00 | 0.00 | 63 | 1014.2 |
| 20260502180602 | 21 | 0 | 3.2 | 6.4 | 0.00 | 0.00 | 0.00 | 62 | 1014.2 |
| 20260502180104 | 21 | 0 | 3.2 | 6.4 | 0.00 | 0.00 | 0.00 | 62 | 1014.2 |
| 20260502170104 | 22 | 321 | 3.2 | 6.4 | 0.00 | 0.00 | 0.00 | 61 | 1014.7 |
| 20260502164104 | 22 | 243 | 3.2 | 4.8 | 0.00 | 0.00 | 0.00 | 58 | 1014.9 |
| 20260502163102 | 22 | 310 | 0.0 | 6.4 | 0.00 | 0.00 | 0.00 | 60 | 1015.1 |
| 20260502162102 | 22 | 6 | 0.0 | 8.0 | 0.00 | 0.00 | 0.00 | 61 | 1015.2 |
| 20260502161604 | 22 | 326 | 3.2 | 11.3 | 0.00 | 0.00 | 0.00 | 61 | 1015.2 |
| 20260502161104 | 22 | 357 | 4.8 | 11.3 | 0.00 | 0.00 | 0.00 | 62 | 1015.3 |
| 20260502160602 | 22 | 179 | 3.2 | 8.0 | 0.00 | 0.00 | 0.00 | 62 | 1015.3 |
| 20260502152101 | 23 | 206 | 6.4 | 14.5 | 0.00 | 0.00 | 0.00 | 59 | 1015.8 |
| 20260502151102 | 23 | 226 | 3.2 | 9.7 | 0.00 | 0.00 | 0.00 | 60 | 1015.9 |
| 20260502150603 | 23 | 168 | 4.8 | 9.7 | 0.00 | 0.00 | 0.00 | 60 | 1016.0 |
| 20260502140104 | 23 | 220 | 3.2 | 8.0 | 0.00 | 0.00 | 0.00 | 63 | 1016.9 |
| 20260502130602 | 22 | 216 | 6.4 | 16.1 | 0.00 | 0.00 | 0.00 | 62 | 1017.3 |
| 20260502123602 | 22 | 42 | 3.2 | 14.5 | 0.00 | 0.00 | 0.00 | 65 | 1017.5 |
| 20260502123104 | 22 | 209 | 6.4 | 14.5 | 0.00 | 0.00 | 0.00 | 64 | 1017.6 |
| 20260502122602 | 22 | 221 | 6.4 | 14.5 | 0.00 | 0.00 | 0.00 | 64 | 1017.7 |
| 20260502122103 | 22 | 220 | 6.4 | 14.5 | 0.00 | 0.00 | 0.00 | 63 | 1017.7 |
| 20260502121604 | 22 | 186 | 4.8 | 17.7 | 0.00 | 0.00 | 0.00 | 63 | 1017.8 |
| 20260502121105 | 22 | 190 | 6.4 | 19.3 | 0.00 | 0.00 | 0.00 | 64 | 1017.8 |
| 20260502120604 | 23 | 171 | 9.7 | 19.3 | 0.00 | 0.00 | 0.00 | 62 | 1017.8 |
| 20260502120104 | 23 | 207 | 4.8 | 25.7 | 0.00 | 0.00 | 0.00 | 61 | 1017.8 |
| 20260502115602 | 23 | 155 | 8.0 | 25.7 | 0.00 | 0.00 | 0.00 | 60 | 1017.8 |
| 20260502115102 | 23 | 159 | 3.2 | 17.7 | 0.00 | 0.00 | 0.00 | 63 | 1017.8 |
| 20260502114604 | 23 | 228 | 6.4 | 24.1 | 0.00 | 0.00 | 0.00 | 61 | 1017.9 |
| 20260502114103 | 23 | 176 | 6.4 | 24.1 | 0.00 | 0.00 | 0.00 | 61 | 1017.9 |
| 20260502113603 | 23 | 189 | 4.8 | 16.1 | 0.00 | 0.00 | 0.00 | 65 | 1018.0 |
| 20260502113103 | 22 | 227 | 1.6 | 16.1 | 0.00 | 0.00 | 0.00 | 64 | 1018.0 |
| 20260502112604 | 22 | 219 | 3.2 | 14.5 | 0.00 | 0.00 | 0.00 | 64 | 1018.1 |
| 20260502112102 | 22 | 233 | 8.0 | 14.5 | 0.00 | 0.00 | 0.00 | 63 | 1018.1 |
| 20260502111103 | 22 | 237 | 4.8 | 11.3 | 0.00 | 0.00 | 0.00 | 65 | 1018.2 |
| 20260502110602 | 22 | 203 | 4.8 | 11.3 | 0.00 | 0.00 | 0.00 | 63 | 1018.1 |
| 20260502105603 | 22 | 220 | 6.4 | 14.5 | 0.00 | 0.00 | 0.00 | 64 | 1018.2 |
| 20260502105103 | 21 | 244 | 1.6 | 11.3 | 0.00 | 0.00 | 0.00 | 65 | 1018.3 |
| 20260502104604 | 22 | 175 | 4.8 | 16.1 | 0.00 | 0.00 | 0.00 | 64 | 1018.3 |
| 20260502103603 | 21 | 178 | 6.4 | 17.7 | 0.00 | 0.00 | 0.00 | 66 | 1018.2 |
| 20260502103103 | 21 | 193 | 4.8 | 11.3 | 0.00 | 0.00 | 0.00 | 69 | 1018.3 |
| 20260502102102 | 21 | 206 | 3.2 | 8.0 | 0.00 | 0.00 | 0.00 | 67 | 1018.4 |
| 20260502101602 | 21 | 185 | 3.2 | 16.1 | 0.00 | 0.00 | 0.00 | 68 | 1018.5 |
| 20260502101101 | 20 | 197 | 3.2 | 16.1 | 0.00 | 0.00 | 0.00 | 68 | 1018.5 |
| 20260502100602 | 21 | 210 | 4.8 | 14.5 | 0.00 | 0.00 | 0.00 | 68 | 1018.6 |
| 20260502091102 | 20 | 271 | 3.2 | 11.3 | 0.00 | 0.00 | 0.00 | 67 | 1018.7 |
| 20260502090602 | 19 | 100 | 4.8 | 11.3 | 0.00 | 0.00 | 0.00 | 68 | 1018.8 |
| 20260502090107 | 19 | 254 | 4.8 | 9.7 | 0.00 | 0.00 | 0.00 | 68 | 1018.8 |
| 20260502071054 | 12 | 189 | 1.6 | 4.8 | 0.00 | 0.00 | 0.00 | 73 | 1019.0 |
| 20260502070553 | 12 | 186 | 0.0 | 4.8 | 0.00 | 0.00 | 0.00 | 73 | 1018.9 |
| 20260502070056 | 11 | 186 | 0.0 | 4.8 | 0.00 | 0.00 | 0.00 | 73 | 1018.8 |
| 20260502065554 | 11 | 186 | 0.0 | 3.2 | 0.00 | 0.00 | 0.00 | 73 | 1018.7 |
| 20260502065055 | 11 | 186 | 0.0 | 3.2 | 0.00 | 0.00 | 0.00 | 73 | 1018.7 |
| 20260502064053 | 11 | 186 | 0.0 | 3.2 | 0.00 | 0.00 | 0.00 | 74 | 1018.8 |
| 20260502063052 | 11 | 186 | 0.0 | 4.8 | 0.00 | 0.00 | 0.00 | 74 | 1018.9 |
| 20260502062551 | 11 | 186 | 1.6 | 4.8 | 0.00 | 0.00 | 0.00 | 75 | 1018.9 |
| 20260502062053 | 11 | 186 | 0.0 | 4.8 | 0.00 | 0.00 | 0.00 | 76 | 1018.9 |
| 20260502061554 | 11 | 186 | 0.0 | 4.8 | 0.00 | 0.00 | 0.00 | 76 | 1019.0 |
| 20260502061051 | 10 | 186 | 0.0 | 4.8 | 0.00 | 0.00 | 0.00 | 76 | 1019.0 |
| 20260502060551 | 10 | 186 | 0.0 | 4.8 | 0.00 | 0.00 | 0.00 | 77 | 1019.0 |
| 20260502060047 | 10 | 192 | 1.6 | 4.8 | 0.00 | 0.00 | 0.00 | 77 | 1018.9 |
| 20260502055547 | 10 | 196 | 3.2 | 4.8 | 0.00 | 0.00 | 0.00 | 77 | 1019.0 |
| 20260502055046 | 10 | 196 | 0.0 | 1.6 | 0.00 | 0.00 | 0.00 | 78 | 1018.9 |
| 20260502054545 | 10 | 196 | 0.0 | 3.2 | 0.00 | 0.00 | 0.00 | 79 | 1018.9 |
| 20260502054046 | 10 | 195 | 0.0 | 3.2 | 0.00 | 0.00 | 0.00 | 80 | 1018.9 |
| 20260502053544 | 10 | 196 | 0.0 | 3.2 | 0.00 | 0.00 | 0.00 | 81 | 1018.9 |
| 20260502053042 | 9 | 199 | 0.0 | 1.6 | 0.00 | 0.00 | 0.00 | 80 | 1018.9 |
| 20260502052541 | 9 | 199 | 0.0 | 3.2 | 0.00 | 0.00 | 0.00 | 81 | 1018.7 |
| 20260502052038 | 9 | 199 | 1.6 | 3.2 | 0.00 | 0.00 | 0.00 | 81 | 1018.6 |
| 20260502051538 | 9 | 199 | 1.6 | 1.6 | 0.00 | 0.00 | 0.00 | 80 | 1018.5 |
| 20260502051038 | 8 | 199 | 0.0 | 3.2 | 0.00 | 0.00 | 0.00 | 80 | 1018.5 |
| 20260502050539 | 8 | 199 | 0.0 | 3.2 | 0.00 | 0.00 | 0.00 | 79 | 1018.6 |
| 20260502050037 | 8 | 199 | 0.0 | 4.8 | 0.00 | 0.00 | 0.00 | 79 | 1018.5 |
| 20260502045540 | 8 | 199 | 1.6 | 8.0 | 0.00 | 0.00 | 0.00 | 79 | 1018.5 |
| 20260502044539 | 8 | 168 | 1.6 | 6.4 | 0.00 | 0.00 | 0.00 | 79 | 1018.7 |
| 20260502044036 | 8 | 168 | 1.6 | 3.2 | 0.00 | 0.00 | 0.00 | 79 | 1018.7 |
| 20260502043537 | 8 | 168 | 0.0 | 3.2 | 0.00 | 0.00 | 0.00 | 79 | 1018.6 |
| 20260502042535 | 8 | 168 | 0.0 | 4.8 | 0.00 | 0.00 | 0.00 | 79 | 1018.7 |
| 20260502042035 | 8 | 168 | 0.0 | 4.8 | 0.00 | 0.00 | 0.00 | 79 | 1018.7 |
| 20260502041534 | 8 | 133 | 3.2 | 4.8 | 0.00 | 0.00 | 0.00 | 79 | 1018.6 |
| 20260502041033 | 8 | 133 | 0.0 | 3.2 | 0.00 | 0.00 | 0.00 | 79 | 1018.7 |
| 20260502040534 | 8 | 133 | 0.0 | 3.2 | 0.00 | 0.00 | 0.00 | 79 | 1018.6 |
| 20260502040031 | 8 | 133 | 1.6 | 3.2 | 0.00 | 0.00 | 0.00 | 79 | 1018.6 |
| 20260502035031 | 8 | 133 | 0.0 | 1.6 | 0.00 | 0.00 | 0.00 | 78 | 1018.7 |
| 20260502034530 | 8 | 133 | 0.0 | 0.0 | 0.00 | 0.00 | 0.00 | 78 | 1018.8 |
| 20260502033527 | 8 | 133 | 0.0 | 0.0 | 0.00 | 0.00 | 0.00 | 78 | 1018.9 |
| 20260502033028 | 8 | 133 | 0.0 | 0.0 | 0.00 | 0.00 | 0.00 | 78 | 1018.9 |
| 20260502032527 | 8 | 133 | 0.0 | 0.0 | 0.00 | 0.00 | 0.00 | 77 | 1018.9 |
| 20260502031526 | 8 | 133 | 0.0 | 0.0 | 0.00 | 0.00 | 0.00 | 77 | 1019.0 |
| 20260502031026 | 8 | 133 | 0.0 | 0.0 | 0.00 | 0.00 | 0.00 | 77 | 1019.0 |
| 20260502030524 | 8 | 133 | 0.0 | 1.6 | 0.00 | 0.00 | 0.00 | 77 | 1019.0 |
| 20260502030025 | 8 | 133 | 0.0 | 1.6 | 0.00 | 0.00 | 0.00 | 77 | 1019.1 |
| 20260502025023 | 8 | 133 | 0.0 | 1.6 | 0.00 | 0.00 | 0.00 | 76 | 1019.2 |
| 20260502024523 | 8 | 133 | 0.0 | 1.6 | 0.00 | 0.00 | 0.00 | 76 | 1019.2 |
| 20260502024021 | 9 | 133 | 0.0 | 1.6 | 0.00 | 0.00 | 0.00 | 76 | 1019.2 |
| 20260502023521 | 9 | 133 | 0.0 | 1.6 | 0.00 | 0.00 | 0.00 | 76 | 1019.3 |
| 20260502023020 | 9 | 133 | 0.0 | 1.6 | 0.00 | 0.00 | 0.00 | 76 | 1019.3 |
| 20260502022519 | 9 | 133 | 0.0 | 3.2 | 0.00 | 0.00 | 0.00 | 75 | 1019.3 |
| 20260502022018 | 9 | 133 | 0.0 | 3.2 | 0.00 | 0.00 | 0.00 | 75 | 1019.3 |
| 20260502020520 | 9 | 127 | 1.6 | 1.6 | 0.00 | 0.00 | 0.00 | 75 | 1019.4 |
| 20260502020021 | 9 | 127 | 0.0 | 3.2 | 0.00 | 0.00 | 0.00 | 75 | 1019.3 |
| 20260502014519 | 9 | 127 | 0.0 | 1.6 | 0.00 | 0.00 | 0.00 | 74 | 1019.4 |
| 20260502014019 | 10 | 127 | 0.0 | 1.6 | 0.00 | 0.00 | 0.00 | 74 | 1019.4 |
| 20260502013518 | 10 | 127 | 0.0 | 1.6 | 0.00 | 0.00 | 0.00 | 74 | 1019.4 |
| 20260502013018 | 10 | 127 | 0.0 | 1.6 | 0.00 | 0.00 | 0.00 | 74 | 1019.5 |
| 20260502012518 | 10 | 127 | 0.0 | 1.6 | 0.00 | 0.00 | 0.00 | 74 | 1019.5 |
| 20260502012017 | 10 | 127 | 0.0 | 3.2 | 0.00 | 0.00 | 0.00 | 73 | 1019.5 |
| 20260502011519 | 10 | 127 | 0.0 | 3.2 | 0.00 | 0.00 | 0.00 | 73 | 1019.6 |
| 20260502011017 | 10 | 127 | 0.0 | 3.2 | 0.00 | 0.00 | 0.00 | 73 | 1019.7 |
| 20260502010517 | 10 | 127 | 0.0 | 3.2 | 0.00 | 0.00 | 0.00 | 73 | 1019.8 |
| 20260502010017 | 10 | 127 | 0.0 | 3.2 | 0.00 | 0.00 | 0.00 | 73 | 1019.8 |
| 20260502005515 | 10 | 127 | 0.0 | 3.2 | 0.00 | 0.00 | 0.00 | 72 | 1019.9 |
| 20260502005015 | 10 | 127 | 0.0 | 3.2 | 0.00 | 0.00 | 0.00 | 72 | 1019.9 |
| 20260502004512 | 10 | 127 | 0.0 | 3.2 | 0.00 | 0.00 | 0.00 | 72 | 1020.0 |
| 20260502003510 | 10 | 127 | 0.0 | 3.2 | 0.00 | 0.00 | 0.00 | 72 | 1020.0 |
| 20260502002511 | 10 | 127 | 1.6 | 3.2 | 0.00 | 0.00 | 0.00 | 71 | 1020.1 |
| 20260502002010 | 10 | 127 | 0.0 | 3.2 | 0.00 | 0.00 | 0.00 | 71 | 1020.2 |
| 20260502001509 | 10 | 127 | 0.0 | 3.2 | 0.00 | 0.00 | 0.00 | 71 | 1020.2 |
| 20260502001010 | 11 | 127 | 0.0 | 3.2 | 0.00 | 0.00 | 0.00 | 71 | 1020.2 |
| 20260502000508 | 11 | 127 | 0.0 | 3.2 | 0.00 | 0.00 | 0.00 | 70 | 1020.2 |
| 20260501235507 | 11 | 127 | 0.0 | 3.2 | 0.00 | 0.00 | 0.00 | 70 | 1020.3 |
| 20260501234507 | 11 | 127 | 0.0 | 1.6 | 0.00 | 0.00 | 0.00 | 69 | 1020.4 |
| 20260501234004 | 11 | 127 | 0.0 | 1.6 | 0.00 | 0.00 | 0.00 | 69 | 1020.5 |
| 20260501233505 | 11 | 127 | 0.0 | 3.2 | 0.00 | 0.00 | 0.00 | 69 | 1020.5 |
| 20260501232504 | 11 | 127 | 0.0 | 0.0 | 0.00 | 0.00 | 0.00 | 68 | 1020.5 |